Time;durP1;ratioP1;P1;durP2;ratioP2;P2;SDS_P1;SDS_P2;PMS_P1;PMS_P2;Temp;Humidity;BMP_temperature;BMP_pressure;BME280_temperature;BME280_humidity;BME280_pressure;Samples;Min_cycle;Max_cycle;Signal;HPM_P1;HPM_P2
2022/08/07 00:01:05;;;;;;;19.48;12.38;;;;;;;22.19;72.05;98976.31;5050313;28;20497;-70
2022/08/07 00:03:31;;;;;;;15.27;11.98;;;;;;;22.29;71.56;98969.69;5054740;28;20029;-70
2022/08/07 00:05:57;;;;;;;13.48;12.05;;;;;;;22.41;70.90;98964.66;5055052;28;20029;-70
2022/08/07 00:08:23;;;;;;;29.58;12.38;;;;;;;22.59;70.25;98970.13;5054601;28;20040;-70
2022/08/07 00:10:49;;;;;;;12.00;10.80;;;;;;;22.63;69.53;98970.06;5054654;28;20041;-70
2022/08/07 00:13:16;;;;;;;11.98;10.85;;;;;;;22.79;68.59;98975.91;5054633;28;20465;-70
2022/08/07 00:15:41;;;;;;;11.27;10.18;;;;;;;23.00;67.51;98974.78;5053645;28;20494;-70
2022/08/07 00:18:08;;;;;;;14.32;10.68;;;;;;;23.08;67.23;98975.47;5054437;28;20075;-70
2022/08/07 00:20:35;;;;;;;14.02;10.70;;;;;;;23.22;66.86;98968.69;5054550;28;20028;-70
2022/08/07 00:23:01;;;;;;;12.52;11.23;;;;;;;23.31;66.16;98979.59;5054405;28;20116;-70
2022/08/07 00:25:26;;;;;;;12.85;10.52;;;;;;;23.37;66.08;98977.84;5054395;28;20051;-70
2022/08/07 00:27:52;;;;;;;17.38;10.32;;;;;;;23.39;65.94;98983.91;5054483;28;20450;-70
2022/08/07 00:30:18;;;;;;;17.50;10.95;;;;;;;23.34;66.25;98980.75;5053291;28;20036;-70
2022/08/07 00:32:47;;;;;;;13.85;10.93;;;;;;;23.09;67.96;98977.09;5054540;28;20033;-69
2022/08/07 00:35:13;;;;;;;16.65;11.80;;;;;;;22.71;69.06;98982.97;5054222;28;20112;-70
2022/08/07 00:37:38;;;;;;;16.35;11.82;;;;;;;22.58;68.70;98979.91;5054111;28;20115;-69
2022/08/07 00:40:04;;;;;;;16.65;11.73;;;;;;;22.48;69.53;98973.13;5054059;28;20025;-70
2022/08/07 00:42:32;;;;;;;13.07;11.05;;;;;;;22.49;69.54;98976.78;5053926;28;20025;-70
2022/08/07 00:44:57;;;;;;;13.63;11.18;;;;;;;22.32;70.22;98982.28;5053296;28;20399;-69
2022/08/07 00:47:23;;;;;;;16.95;12.15;;;;;;;22.16;70.26;98977.19;5053883;28;20040;-70
2022/08/07 00:49:48;;;;;;;15.20;13.27;;;;;;;21.99;71.14;98984.72;5054151;28;20032;-70
2022/08/07 00:52:14;;;;;;;15.82;11.73;;;;;;;22.13;70.28;98978.03;5053914;28;20052;-70
2022/08/07 00:54:40;;;;;;;15.80;12.30;;;;;;;21.91;70.77;98978.31;5053836;28;20226;-70
2022/08/07 00:57:06;;;;;;;18.75;13.60;;;;;;;21.90;71.26;98987.25;5053802;28;20060;-70
2022/08/07 00:59:32;;;;;;;14.75;12.25;;;;;;;21.79;71.94;98984.53;5052789;28;20036;-70
2022/08/07 01:01:57;;;;;;;15.00;13.45;;;;;;;21.81;72.00;98987.78;5053755;28;20029;-70
2022/08/07 01:04:23;;;;;;;21.95;13.60;;;;;;;21.65;72.84;98980.59;5053577;28;20033;-70
2022/08/07 01:06:49;;;;;;;17.17;13.02;;;;;;;21.59;72.93;98980.25;5052440;28;20024;-70
2022/08/07 01:09:15;;;;;;;14.75;13.25;;;;;;;21.66;72.54;98979.41;5053424;28;20501;-70
2022/08/07 01:11:41;;;;;;;23.23;13.98;;;;;;;21.51;72.90;98983.59;5052830;28;20044;-70
2022/08/07 01:14:07;;;;;;;17.58;14.35;;;;;;;21.22;74.45;98989.53;5051996;28;20415;-69
2022/08/07 01:16:35;;;;;;;15.82;13.77;;;;;;;21.02;75.49;98987.28;5053465;28;20056;-70
2022/08/07 01:19:02;;;;;;;17.38;13.60;;;;;;;20.84;76.08;98988.22;5053300;28;20032;-69
2022/08/07 01:21:27;;;;;;;19.67;14.93;;;;;;;20.95;75.67;98985.31;5053369;28;20098;-69
2022/08/07 01:23:55;;;;;;;18.95;14.43;;;;;;;20.94;76.07;98992.22;5053294;28;20428;-70
2022/08/07 01:26:22;;;;;;;16.67;14.50;;;;;;;21.11;75.32;98998.19;5052314;28;20479;-69
2022/08/07 01:28:50;;;;;;;15.75;14.05;;;;;;;20.99;75.29;98988.09;5052160;28;20036;-70
2022/08/07 01:31:17;;;;;;;18.55;14.50;;;;;;;21.01;74.88;98989.31;5053273;28;20025;-70
2022/08/07 01:33:44;;;;;;;15.60;13.90;;;;;;;21.15;74.87;98990.41;5051688;28;20025;-70
2022/08/07 01:36:10;;;;;;;15.10;13.43;;;;;;;21.00;75.02;98987.69;5053072;28;20028;-69
2022/08/07 01:38:37;;;;;;;17.45;14.13;;;;;;;20.90;75.52;98992.25;5053013;28;20104;-69
2022/08/07 01:41:05;;;;;;;15.63;13.68;;;;;;;20.66;76.24;98987.50;5053059;28;20025;-69
2022/08/07 01:43:32;;;;;;;18.65;14.30;;;;;;;20.67;76.80;98980.59;5051738;28;20443;-69
2022/08/07 01:45:58;;;;;;;22.55;13.50;;;;;;;20.81;76.55;98979.69;5052879;28;20021;-70
2022/08/07 01:48:25;;;;;;;18.05;14.32;;;;;;;20.94;75.96;98975.16;5052753;28;20028;-69
2022/08/07 01:51:07;;;;;;;16.10;14.35;;;;;;;21.20;75.02;98987.13;5051534;28;20029;-69
2022/08/07 01:53:35;;;;;;;18.08;13.35;;;;;;;21.50;73.74;98982.00;5052679;28;20154;-70
2022/08/07 01:56:24;;;;;;;18.63;13.30;;;;;;;21.51;73.57;98989.28;5052714;28;20036;-69
2022/08/07 01:58:58;;;;;;;20.73;13.10;;;;;;;21.48;73.50;98981.56;5051656;28;20423;-69
2022/08/07 02:01:26;;;;;;;16.35;13.40;;;;;;;21.41;73.48;98986.13;5049488;28;20025;-70
2022/08/07 02:04:27;;;;;;;14.90;13.40;;;;;;;21.44;73.21;98984.47;5051218;28;20029;-70
2022/08/07 02:06:55;;;;;;;15.45;13.00;;;;;;;21.38;73.70;98975.59;5030688;28;20045;-69
2022/08/07 02:09:22;;;;;;;19.77;12.77;;;;;;;21.50;73.52;98987.69;5051044;28;20393;-70
2022/08/07 02:11:50;;;;;;;24.10;13.98;;;;;;;21.28;74.54;98987.88;5051778;28;20420;-70
2022/08/07 02:14:18;;;;;;;15.68;14.07;;;;;;;21.28;74.92;98979.34;5051313;28;20040;-69
2022/08/07 02:16:47;;;;;;;16.63;13.77;;;;;;;21.20;75.72;98970.06;5052256;28;20090;-69
2022/08/07 02:19:15;;;;;;;17.05;12.75;;;;;;;21.20;75.85;98974.94;5052223;28;20090;-70
2022/08/07 02:21:42;;;;;;;14.95;13.38;;;;;;;21.20;75.76;98964.38;5049095;28;20736;-70
2022/08/07 02:24:08;;;;;;;17.33;13.75;;;;;;;21.37;75.05;98961.78;5051668;28;20037;-70
2022/08/07 02:26:37;;;;;;;18.77;13.45;;;;;;;21.42;74.56;98961.34;5051341;28;20410;-70
2022/08/07 02:29:06;;;;;;;16.27;12.93;;;;;;;21.59;73.55;98965.19;5050909;28;20041;-69
2022/08/07 02:31:32;;;;;;;14.73;13.15;;;;;;;21.63;73.18;98968.84;5050754;28;20106;-70
2022/08/07 02:34:02;;;;;;;14.43;12.73;;;;;;;21.68;72.70;98973.28;5051921;28;20035;-70
2022/08/07 02:36:28;;;;;;;13.15;11.75;;;;;;;21.72;72.46;98969.19;5052268;28;20025;-70
2022/08/07 03:02:01;;;;;;;16.25;12.88;;;;;;;21.90;70.42;98990.09;5150852;27;20665;-78
2022/08/07 03:04:28;;;;;;;27.70;14.57;;;;;;;21.84;70.68;98996.28;5150607;27;20037;-77
2022/08/07 03:06:54;;;;;;;16.65;12.82;;;;;;;21.24;72.46;98989.94;5147826;27;20045;-75
2022/08/07 03:09:20;;;;;;;16.17;12.60;;;;;;;21.27;72.86;98987.06;5138487;27;20627;-76
2022/08/07 03:11:46;;;;;;;21.30;13.50;;;;;;;21.18;73.39;98995.28;5142441;27;20015;-80
2022/08/07 03:14:13;;;;;;;18.48;12.70;;;;;;;21.23;73.45;98997.66;5150381;27;20042;-77
2022/08/07 03:16:39;;;;;;;14.63;13.18;;;;;;;21.40;72.77;98998.72;5150738;27;20485;-73
2022/08/07 03:19:06;;;;;;;20.50;12.98;;;;;;;21.68;71.66;99005.38;5149885;27;20019;-72
2022/08/07 03:21:32;;;;;;;19.08;12.98;;;;;;;21.67;71.29;98992.38;5149807;27;20076;-69
2022/08/07 03:23:58;;;;;;;19.95;14.35;;;;;;;21.74;71.23;99003.72;5148629;27;20026;-72
2022/08/07 03:26:29;;;;;;;20.42;14.05;;;;;;;21.62;71.97;98997.69;5148304;27;20031;-71
2022/08/07 03:28:57;;;;;;;21.55;14.52;;;;;;;21.21;73.59;98996.47;5149601;27;20077;-72
2022/08/07 03:31:26;;;;;;;21.75;14.82;;;;;;;21.09;74.74;99003.47;5149521;27;20027;-72
2022/08/07 03:33:58;;;;;;;19.23;15.10;;;;;;;21.00;74.92;99006.81;5149183;27;20023;-72
2022/08/07 03:36:26;;;;;;;18.50;13.40;;;;;;;21.00;74.58;99001.13;5149107;27;20046;-72
2022/08/07 03:38:57;;;;;;;17.60;13.55;;;;;;;21.22;73.28;99007.41;5149021;27;20034;-72
2022/08/07 03:41:24;;;;;;;22.35;13.98;;;;;;;21.20;73.70;99004.19;5146831;27;20068;-72
2022/08/07 03:43:50;;;;;;;18.92;15.18;;;;;;;21.03;74.07;99001.06;5147686;27;20018;-72
2022/08/07 03:46:16;;;;;;;25.33;14.13;;;;;;;21.11;74.13;99006.69;5148799;27;20076;-72
2022/08/07 03:48:42;;;;;;;23.33;13.85;;;;;;;21.08;74.21;99008.34;5149202;27;20023;-72
2022/08/07 03:51:08;;;;;;;27.45;14.82;;;;;;;21.38;72.89;99006.06;5149002;27;20015;-72
2022/08/07 03:53:33;;;;;;;33.38;14.60;;;;;;;21.46;72.80;99004.78;5149027;27;20079;-72
2022/08/07 03:56:00;;;;;;;17.45;12.43;;;;;;;21.50;72.33;98997.00;5136370;27;20015;-71
2022/08/07 03:58:27;;;;;;;19.33;13.35;;;;;;;21.58;71.73;98998.56;5126878;27;20467;-72
2022/08/07 04:00:56;;;;;;;13.98;12.27;;;;;;;21.58;71.49;98994.88;5126756;27;20043;-72
2022/08/07 04:03:21;;;;;;;17.90;13.30;;;;;;;21.41;72.66;98997.50;5113442;28;20054;-72
2022/08/07 04:05:47;;;;;;;15.57;14.00;;;;;;;21.08;74.41;98999.81;5114532;28;20468;-72
2022/08/07 04:08:14;;;;;;;19.65;14.90;;;;;;;20.92;75.38;99005.22;5126829;27;20110;-72
2022/08/07 04:10:41;;;;;;;16.92;13.98;;;;;;;20.89;75.87;99006.88;5134951;27;20023;-72
2022/08/07 04:13:09;;;;;;;15.98;13.13;;;;;;;21.03;75.27;99006.75;5116663;27;20032;-72
2022/08/07 04:15:35;;;;;;;22.77;13.55;;;;;;;21.20;74.57;99003.38;5112884;27;20473;-72
2022/08/07 04:18:01;;;;;;;16.13;13.02;;;;;;;21.39;73.69;99004.84;5114313;28;20027;-72
2022/08/07 04:20:27;;;;;;;21.05;13.52;;;;;;;21.31;73.94;99002.06;5130891;27;20027;-72
2022/08/07 04:22:53;;;;;;;17.48;13.68;;;;;;;21.32;73.70;99000.00;5133386;27;20591;-71
2022/08/07 04:25:21;;;;;;;16.90;13.73;;;;;;;21.36;74.07;99003.66;5134671;27;20023;-71
2022/08/07 04:27:47;;;;;;;19.13;13.15;;;;;;;20.82;75.54;98995.56;5115612;27;20027;-72
2022/08/07 04:30:12;;;;;;;15.90;13.50;;;;;;;20.87;75.98;99000.78;5112689;28;20348;-72
2022/08/07 04:32:38;;;;;;;18.90;13.07;;;;;;;21.14;75.25;99012.38;5131931;27;20031;-72
2022/08/07 04:35:05;;;;;;;17.70;12.93;;;;;;;21.33;74.42;99007.31;5134458;27;20030;-72
2022/08/07 04:37:32;;;;;;;25.30;14.20;;;;;;;21.37;73.90;99010.97;5134676;27;20408;-72
2022/08/07 04:39:58;;;;;;;24.60;13.70;;;;;;;21.20;73.85;99003.38;5134442;27;20015;-72
2022/08/07 04:42:27;;;;;;;16.85;14.68;;;;;;;21.06;74.55;99002.28;5116754;27;20126;-72
2022/08/07 04:44:57;;;;;;;17.23;15.43;;;;;;;21.09;75.21;99009.94;5113590;27;20043;-72
2022/08/07 04:47:34;;;;;;;19.23;14.48;;;;;;;21.26;74.92;99015.94;5113810;28;20497;-72
2022/08/07 04:50:35;;;;;;;17.27;15.13;;;;;;;21.18;75.31;99020.88;5113546;28;20546;-72
2022/08/07 04:53:09;;;;;;;26.20;16.58;;;;;;;21.41;74.90;99014.56;5144727;27;20087;-72
2022/08/07 04:55:58;;;;;;;18.10;15.10;;;;;;;21.54;73.89;99017.72;5126024;27;20023;-71
2022/08/07 04:58:49;;;;;;;17.63;14.95;;;;;;;21.31;74.67;99021.16;5114192;27;20535;-72
2022/08/07 05:01:41;;;;;;;22.02;15.55;;;;;;;21.21;76.76;99022.88;5114064;28;20534;-72
2022/08/07 05:04:32;;;;;;;20.40;18.30;;;;;;;20.82;77.85;99013.41;5112138;28;20501;-72
2022/08/07 05:07:27;;;;;;;21.20;17.65;;;;;;;20.95;77.45;99019.41;5113993;27;20066;-72
2022/08/07 05:10:00;;;;;;;23.70;17.70;;;;;;;21.00;77.57;99015.31;5090340;28;20043;-72
2022/08/07 05:12:33;;;;;;;23.15;18.05;;;;;;;20.94;77.10;99011.28;5110285;28;20112;-72
2022/08/07 05:15:17;;;;;;;26.00;16.77;;;;;;;21.06;77.53;99021.34;5110869;28;20032;-72
2022/08/07 05:17:48;;;;;;;25.58;18.70;;;;;;;21.03;77.38;99023.00;5112790;28;20032;-72
2022/08/07 05:20:20;;;;;;;22.20;17.42;;;;;;;21.03;76.69;99032.34;5130742;27;20474;-72
2022/08/07 05:22:48;;;;;;;19.70;17.58;;;;;;;21.03;76.39;99029.50;5133386;27;20027;-72
2022/08/07 05:25:16;;;;;;;21.33;17.73;;;;;;;21.08;76.87;99028.25;5114704;27;20061;-72
2022/08/07 05:27:45;;;;;;;22.95;18.67;;;;;;;21.24;76.64;99033.41;5111052;28;20027;-72
2022/08/07 05:30:11;;;;;;;29.30;19.23;;;;;;;21.30;75.63;99033.75;5145117;27;20089;-71
2022/08/07 05:32:38;;;;;;;20.27;18.10;;;;;;;21.26;75.15;99035.84;5133253;27;20425;-74
2022/08/07 05:35:07;;;;;;;22.55;17.58;;;;;;;21.50;75.43;99039.69;5116422;27;20027;-72
2022/08/07 05:37:33;;;;;;;23.65;17.73;;;;;;;21.57;75.33;99036.78;5111298;28;20054;-72
2022/08/07 05:40:00;;;;;;;20.52;17.55;;;;;;;21.58;74.79;99040.41;5111380;28;20026;-72
2022/08/07 05:42:26;;;;;;;27.63;18.02;;;;;;;21.61;74.96;99033.91;5109805;28;20032;-71
2022/08/07 05:44:53;;;;;;;21.58;16.63;;;;;;;21.74;74.33;99040.72;5110996;28;20032;-71
2022/08/07 05:47:20;;;;;;;21.58;16.60;;;;;;;21.78;74.10;99026.44;5111251;28;20024;-71
2022/08/07 05:49:48;;;;;;;21.50;18.45;;;;;;;22.00;74.62;99032.69;5112403;28;20466;-72
2022/08/07 05:52:14;;;;;;;22.10;17.98;;;;;;;22.10;73.24;99035.84;5111096;28;20027;-71
2022/08/07 05:54:39;;;;;;;23.98;16.63;;;;;;;22.21;72.85;99049.94;5118825;27;20082;-71
2022/08/07 05:57:07;;;;;;;24.05;16.83;;;;;;;22.29;72.61;99042.94;5129390;27;20107;-72
2022/08/07 05:59:37;;;;;;;19.10;15.77;;;;;;;22.40;72.35;99046.47;5109041;28;20034;-72
2022/08/07 06:02:05;;;;;;;19.35;16.30;;;;;;;22.59;71.85;99044.19;5126378;27;20524;-72
2022/08/07 06:04:36;;;;;;;23.33;16.88;;;;;;;22.73;71.90;99054.59;5127613;27;20031;-72
2022/08/07 06:07:04;;;;;;;20.75;17.92;;;;;;;22.83;71.30;99052.84;5111080;28;20030;-71
2022/08/07 06:09:31;;;;;;;24.17;18.58;;;;;;;22.84;71.00;99049.56;5108114;28;20104;-72
2022/08/07 06:11:58;;;;;;;27.25;16.88;;;;;;;23.02;71.79;99054.19;5111195;28;20107;-72
2022/08/07 06:14:24;;;;;;;22.85;18.23;;;;;;;23.14;71.98;99047.88;5109582;28;20035;-72
2022/08/07 06:16:51;;;;;;;18.52;16.33;;;;;;;23.09;71.07;99059.78;5112018;28;20023;-72
2022/08/07 06:19:20;;;;;;;23.25;17.15;;;;;;;23.19;70.43;99060.06;5106037;27;20028;-71
2022/08/07 06:21:47;;;;;;;22.52;16.05;;;;;;;23.34;70.38;99058.59;5109933;28;20028;-71
2022/08/07 06:24:13;;;;;;;22.67;16.48;;;;;;;23.50;68.47;99048.56;5100664;28;20028;-71
2022/08/07 06:26:40;;;;;;;17.55;14.55;;;;;;;23.65;68.37;99049.13;5110528;28;20024;-72
2022/08/07 06:29:05;;;;;;;15.50;13.90;;;;;;;23.82;67.78;99058.59;5109685;28;20015;-70
2022/08/07 06:31:30;;;;;;;20.90;14.38;;;;;;;23.99;67.59;99050.94;5117675;27;20030;-70
2022/08/07 06:33:56;;;;;;;14.95;12.90;;;;;;;24.19;67.02;99050.16;5129248;27;20141;-73
2022/08/07 06:36:25;;;;;;;17.15;12.65;;;;;;;24.33;64.90;99058.47;5107928;27;20112;-80
2022/08/07 06:38:51;;;;;;;19.90;12.32;;;;;;;24.51;64.20;99045.84;5132371;27;20027;-80
2022/08/07 06:41:29;;;;;;;16.38;13.68;;;;;;;24.70;63.58;99046.25;5131159;27;20477;-75
2022/08/07 06:43:56;;;;;;;22.38;12.45;;;;;;;24.90;63.32;99043.38;5124856;27;20027;-73
2022/08/07 06:46:22;;;;;;;16.60;13.43;;;;;;;25.08;61.55;99054.41;5111442;28;20020;-76
2022/08/07 06:48:47;;;;;;;14.25;12.32;;;;;;;25.22;60.93;99050.41;5112530;28;20016;-70
2022/08/07 06:51:22;;;;;;;14.18;11.50;;;;;;;25.48;58.34;99050.56;5110820;28;20023;-73
2022/08/07 06:53:49;;;;;;;18.95;11.18;;;;;;;25.74;58.28;99053.63;5121974;28;20050;-73
2022/08/07 06:56:16;;;;;;;16.92;10.27;;;;;;;25.91;56.56;99057.25;5100481;28;20028;-72
2022/08/07 06:58:43;;;;;;;16.45;11.05;;;;;;;25.92;56.18;99056.00;5105502;28;20471;-75
2022/08/07 07:01:12;;;;;;;13.32;11.10;;;;;;;26.02;56.09;99057.75;5108448;28;20039;-74
2022/08/07 07:03:40;;;;;;;13.20;11.32;;;;;;;26.11;54.41;99059.97;5094487;28;20024;-73
2022/08/07 07:06:09;;;;;;;13.95;10.55;;;;;;;26.26;55.64;99057.53;5111428;28;20057;-73
2022/08/07 07:08:35;;;;;;;13.52;10.15;;;;;;;26.51;53.67;99066.66;5108148;28;20024;-74
2022/08/07 07:11:03;;;;;;;14.00;9.80;;;;;;;26.65;53.15;99060.47;5109678;28;20011;-75
2022/08/07 07:13:37;;;;;;;10.60;9.45;;;;;;;26.85;53.53;99063.19;5109848;28;20055;-74
2022/08/07 07:16:09;;;;;;;14.50;11.07;;;;;;;27.04;51.58;99069.97;5109805;28;20362;-73
2022/08/07 07:18:43;;;;;;;13.13;10.05;;;;;;;27.18;51.86;99070.78;5110366;28;20020;-74
2022/08/07 07:21:15;;;;;;;12.73;9.85;;;;;;;27.34;51.68;99067.00;5111482;28;20476;-71
2022/08/07 07:23:41;;;;;;;10.75;9.63;;;;;;;27.51;49.60;99063.97;5111948;28;20024;-72
2022/08/07 07:26:12;;;;;;;10.77;9.23;;;;;;;27.68;47.93;99073.28;5109998;28;20550;-72
2022/08/07 07:28:45;;;;;;;13.35;10.07;;;;;;;27.73;47.55;99061.19;5111793;28;20039;-71
2022/08/07 07:31:30;;;;;;;16.50;9.05;;;;;;;27.92;46.82;99067.91;5110420;28;20027;-73
2022/08/07 07:34:02;;;;;;;14.65;8.85;;;;;;;28.13;47.10;99065.53;5113531;28;20118;-72
2022/08/07 07:36:30;;;;;;;9.70;8.70;;;;;;;28.21;46.29;99068.97;5110935;28;20165;-72
2022/08/07 07:38:57;;;;;;;16.02;9.27;;;;;;;28.25;47.05;99066.78;5114119;27;20027;-71
2022/08/07 07:41:25;;;;;;;16.02;8.73;;;;;;;28.40;44.10;99059.22;5114201;28;20097;-71
2022/08/07 07:43:52;;;;;;;9.20;8.10;;;;;;;28.36;43.18;99072.13;5114902;28;20016;-70
2022/08/07 07:46:21;;;;;;;11.10;8.68;;;;;;;27.87;44.78;99063.56;5113869;27;20026;-71
2022/08/07 07:48:49;;;;;;;12.27;9.07;;;;;;;28.29;44.54;99074.00;5114181;28;20450;-69
2022/08/07 07:51:17;;;;;;;9.43;7.60;;;;;;;28.41;43.78;99074.38;5113766;28;20047;-69
2022/08/07 07:53:45;;;;;;;12.18;8.45;;;;;;;28.51;45.20;99073.19;5115075;27;20038;-69
2022/08/07 07:56:12;;;;;;;14.40;8.63;;;;;;;28.54;43.90;99075.16;5112081;28;20129;-70
2022/08/07 07:58:39;;;;;;;10.32;9.02;;;;;;;28.87;44.65;99065.28;5113703;28;20032;-71
2022/08/07 08:01:07;;;;;;;12.65;8.32;;;;;;;29.16;42.26;99071.97;5112818;27;20513;-74
2022/08/07 08:03:35;;;;;;;11.30;8.30;;;;;;;29.23;42.72;99072.50;5113235;28;20036;-71
2022/08/07 08:06:01;;;;;;;11.30;9.35;;;;;;;29.33;42.92;99072.53;5105443;28;20032;-72
2022/08/07 08:08:31;;;;;;;13.48;9.77;;;;;;;29.55;44.71;99081.88;5113091;28;20104;-72
2022/08/07 08:10:56;;;;;;;;;;;;;;;29.59;41.06;99080.94;5112425;28;20424;-71
2022/08/07 08:13:25;;;;;;;10.85;9.10;;;;;;;29.46;40.72;99073.22;5111104;28;19920;-72
2022/08/07 08:15:51;;;;;;;11.80;9.13;;;;;;;29.37;43.37;99076.06;5108948;28;20063;-71
2022/08/07 08:18:18;;;;;;;12.50;8.68;;;;;;;29.54;42.11;99082.38;5113930;28;20081;-71
2022/08/07 08:20:46;;;;;;;12.82;9.60;;;;;;;29.66;40.13;99067.03;5113700;27;20028;-73
2022/08/07 08:28:52;;;;;;;10.07;8.57;;;;;;;30.32;38.72;99067.91;5114574;28;20054;-70
2022/08/07 08:31:28;;;;;;;9.77;8.35;;;;;;;30.43;38.68;99072.38;5114715;27;20114;-73
2022/08/07 08:33:55;;;;;;;11.05;8.30;;;;;;;30.44;38.09;99065.31;5106817;28;20492;-74
2022/08/07 08:36:25;;;;;;;10.07;8.60;;;;;;;30.57;39.02;99071.72;5114382;27;20024;-72
2022/08/07 08:38:51;;;;;;;;;;;;;;;30.34;38.80;99073.16;5114713;27;20085;-72
2022/08/07 08:41:23;;;;;;;10.30;7.95;;;;;;;30.36;38.16;99073.50;5118702;27;19915;-70
2022/08/07 08:44:06;;;;;;;12.00;7.88;;;;;;;30.36;39.13;99061.97;5113054;28;20039;-72
2022/08/07 08:46:47;;;;;;;9.73;8.00;;;;;;;30.44;38.61;99068.22;5114187;28;20023;-74
2022/08/07 08:49:22;;;;;;;9.32;7.80;;;;;;;30.56;38.58;99063.53;5111859;28;20532;-74
2022/08/07 08:52:10;;;;;;;10.40;8.35;;;;;;;30.72;38.85;99068.16;5107802;28;20031;-72
2022/08/07 08:54:47;;;;;;;10.32;8.10;;;;;;;30.82;38.28;99069.75;5060911;28;20609;-73
2022/08/07 08:57:25;;;;;;;14.50;8.30;;;;;;;30.84;38.46;99063.50;5111732;27;20558;-71
2022/08/07 09:00:00;;;;;;;7.75;6.93;;;;;;;30.80;37.63;99072.31;5113747;28;20103;-71
2022/08/07 09:02:38;;;;;;;8.30;7.50;;;;;;;30.94;36.65;99065.03;5113035;28;20033;-72
2022/08/07 09:05:19;;;;;;;10.25;7.80;;;;;;;30.96;37.49;99054.63;5112142;28;20117;-74
2022/08/07 09:08:11;;;;;;;10.68;7.93;;;;;;;31.23;36.09;99064.47;5113834;28;20024;-72
2022/08/07 09:10:45;;;;;;;8.82;7.95;;;;;;;31.21;36.46;99061.25;5102791;27;20035;-72
2022/08/07 09:13:32;;;;;;;10.88;8.38;;;;;;;31.38;36.27;99069.56;5113517;28;20531;-72
2022/08/07 09:16:01;;;;;;;8.40;7.60;;;;;;;31.51;34.67;99066.44;5113018;27;20035;-78
2022/08/07 09:19:09;;;;;;;24.02;8.63;;;;;;;31.30;35.13;99063.31;5112420;28;20031;-74
2022/08/07 09:21:38;;;;;;;10.07;7.25;;;;;;;31.24;36.04;99060.28;5112939;27;20039;-76
2022/08/07 09:24:53;;;;;;;8.65;7.85;;;;;;;31.81;35.12;99048.44;5110151;28;20481;-76
2022/08/07 09:27:29;;;;;;;8.85;8.05;;;;;;;32.02;34.32;99070.44;5095829;27;20039;-74
2022/08/07 09:30:05;;;;;;;9.73;7.00;;;;;;;32.02;35.06;99064.66;5108733;28;20114;-75
2022/08/07 09:32:56;;;;;;;7.97;7.13;;;;;;;32.13;34.16;99058.28;5104745;28;20032;-73
2022/08/07 09:35:50;;;;;;;10.60;8.02;;;;;;;32.29;34.16;99059.94;5103422;27;20820;-76
2022/08/07 09:38:35;;;;;;;13.13;7.40;;;;;;;32.42;34.40;99055.97;5110552;28;20098;-75
2022/08/07 09:41:28;;;;;;;41.08;9.65;;;;;;;32.68;33.90;99049.59;5093565;28;20368;-75
2022/08/07 09:44:18;;;;;;;15.73;8.15;;;;;;;32.51;32.68;99046.41;5106102;28;20530;-74
2022/08/07 09:46:49;;;;;;;;;;;;;;;32.82;31.36;99042.22;5112787;27;20023;-74
2022/08/07 09:49:36;;;;;;;41.45;9.02;;;;;;;32.75;31.74;99050.00;5108856;28;19911;-74
2022/08/07 09:52:22;;;;;;;18.63;6.88;;;;;;;32.70;32.17;99038.31;5105475;28;20480;-75
2022/08/07 09:54:53;;;;;;;16.20;6.75;;;;;;;32.97;31.83;99039.34;5105392;28;20031;-75
2022/08/07 09:57:56;;;;;;;10.90;7.72;;;;;;;32.93;30.75;99038.72;5110688;28;20028;-74
2022/08/07 10:00:26;;;;;;;16.60;7.63;;;;;;;33.12;30.93;99037.22;5097005;28;20062;-75
2022/08/07 10:03:01;;;;;;;13.13;6.93;;;;;;;33.14;30.65;99028.81;5108987;28;20413;-75
2022/08/07 10:06:08;;;;;;;12.77;5.78;;;;;;;33.30;28.55;99029.56;5106830;28;20084;-75
2022/08/07 10:08:39;;;;;;;7.28;5.45;;;;;;;33.08;28.58;99025.03;5102692;28;20410;-75
2022/08/07 10:11:29;;;;;;;28.42;6.50;;;;;;;33.01;29.72;99032.03;5111917;28;20497;-77
2022/08/07 10:13:57;;;;;;;10.18;6.47;;;;;;;33.09;30.28;99020.84;5101024;28;20088;-74
2022/08/07 10:16:40;;;;;;;10.63;6.93;;;;;;;33.34;30.14;99018.56;5111086;28;20027;-72
2022/08/07 10:19:28;;;;;;;7.30;6.70;;;;;;;33.44;29.76;99011.34;5099905;28;20024;-73
2022/08/07 10:22:13;;;;;;;7.70;7.00;;;;;;;33.21;30.91;99007.31;5103307;28;20138;-73
2022/08/07 10:25:03;;;;;;;12.65;6.75;;;;;;;33.59;28.33;99010.50;5096825;28;20093;-70
2022/08/07 10:27:52;;;;;;;8.98;6.15;;;;;;;33.64;29.42;99023.47;5097459;28;20027;-70
2022/08/07 10:30:37;;;;;;;13.50;5.32;;;;;;;33.56;29.06;99023.13;5103103;28;20019;-70
2022/08/07 10:33:23;;;;;;;7.97;5.55;;;;;;;33.74;27.76;99017.03;5117270;27;20050;-71
2022/08/07 10:36:00;;;;;;;9.70;5.93;;;;;;;33.86;27.88;99020.88;5107020;28;20136;-73
2022/08/07 10:39:06;;;;;;;6.38;5.78;;;;;;;33.45;27.60;99010.06;5108921;28;20027;-73
2022/08/07 10:41:38;;;;;;;6.93;6.07;;;;;;;33.74;28.64;99014.13;5087334;28;20039;-72
2022/08/07 10:44:52;;;;;;;6.90;5.65;;;;;;;33.63;29.37;99011.06;5107742;28;20016;-73
2022/08/07 10:47:21;;;;;;;10.52;5.65;;;;;;;33.73;28.51;99000.16;5119952;27;20027;-74
2022/08/07 10:50:04;;;;;;;6.95;5.03;;;;;;;33.75;29.29;99000.44;5094027;28;20058;-74
2022/08/07 10:52:38;;;;;;;8.85;5.25;;;;;;;33.97;28.52;98997.00;5104587;28;20039;-74
2022/08/07 10:55:19;;;;;;;6.20;5.50;;;;;;;34.07;27.66;98993.97;5097376;28;20050;-73
2022/08/07 10:58:02;;;;;;;7.00;5.15;;;;;;;33.36;28.09;98998.56;5089244;28;20052;-75
2022/08/07 11:00:35;;;;;;;5.07;4.68;;;;;;;34.01;26.84;99006.28;5105948;28;20031;-75
2022/08/07 11:03:13;;;;;;;5.60;5.05;;;;;;;33.90;27.03;98988.72;5107764;28;20044;-76
2022/08/07 11:05:57;;;;;;;4.88;4.47;;;;;;;33.93;26.66;98992.72;5119121;27;20031;-75
2022/08/07 11:08:48;;;;;;;9.10;4.32;;;;;;;34.22;26.96;98991.75;5107914;28;20070;-73
2022/08/07 11:11:22;;;;;;;6.50;4.95;;;;;;;34.18;26.21;98988.28;5106515;27;20063;-72
2022/08/07 11:13:56;;;;;;;8.07;4.80;;;;;;;34.19;26.15;98975.38;5107579;27;20028;-72
2022/08/07 11:16:28;;;;;;;5.85;5.32;;;;;;;34.31;25.48;98976.25;5100271;27;20502;-71
2022/08/07 11:19:15;;;;;;;9.52;4.95;;;;;;;34.45;26.09;98977.47;5114794;28;20023;-72
2022/08/07 11:22:00;;;;;;;9.18;4.85;;;;;;;34.45;26.08;98962.94;5114873;28;20106;-72
2022/08/07 11:25:07;;;;;;;5.57;5.07;;;;;;;34.55;25.70;98966.50;5113842;28;20486;-72
2022/08/07 11:27:55;;;;;;;5.60;4.82;;;;;;;34.37;25.39;98964.72;5093501;28;20062;-72
2022/08/07 11:30:25;;;;;;;6.35;4.05;;;;;;;34.17;25.65;98972.97;5102621;28;20043;-72
2022/08/07 11:33:28;;;;;;;8.45;4.50;;;;;;;34.01;25.91;98976.50;5113737;28;20027;-72
2022/08/07 11:36:12;;;;;;;5.20;4.63;;;;;;;33.69;25.95;98980.06;5113262;28;20561;-72
2022/08/07 11:39:08;;;;;;;4.95;4.53;;;;;;;33.83;26.21;98969.69;5113253;28;20088;-71
2022/08/07 11:41:53;;;;;;;4.88;4.47;;;;;;;33.79;25.87;98965.41;5111086;28;20043;-72
2022/08/07 11:44:38;;;;;;;4.93;4.53;;;;;;;33.61;26.08;98973.13;5111346;28;20039;-71
2022/08/07 11:47:36;;;;;;;5.63;4.65;;;;;;;33.67;27.17;98964.50;5106190;28;20027;-72
2022/08/07 11:50:31;;;;;;;5.22;4.70;;;;;;;33.32;27.47;98958.22;5109150;28;20031;-72
2022/08/07 11:53:24;;;;;;;6.63;4.55;;;;;;;33.54;27.25;98950.34;5109785;27;20035;-72
2022/08/07 11:56:08;;;;;;;6.80;4.72;;;;;;;33.74;26.14;98961.94;5107260;28;20019;-72
2022/08/07 11:58:59;;;;;;;4.50;4.10;;;;;;;33.84;27.57;98953.09;5106771;28;20051;-71
2022/08/07 12:01:44;;;;;;;5.55;5.00;;;;;;;33.85;26.30;98957.56;5110816;28;20131;-72
2022/08/07 12:04:56;;;;;;;4.72;4.22;;;;;;;34.18;26.69;98944.78;5110563;28;20118;-72
2022/08/07 12:07:43;;;;;;;5.00;4.20;;;;;;;34.39;25.63;98953.38;5047011;28;20040;-72
2022/08/07 12:10:43;;;;;;;4.88;4.40;;;;;;;34.51;25.22;98946.44;5109414;27;20489;-72
2022/08/07 12:13:27;;;;;;;5.75;5.07;;;;;;;34.55;25.25;98949.06;5110673;27;20034;-72
2022/08/07 12:16:03;;;;;;;7.45;4.15;;;;;;;34.33;26.10;98938.03;5109537;28;20046;-72
2022/08/07 12:18:47;;;;;;;3.97;3.58;;;;;;;34.28;25.42;98948.28;5110081;28;20455;-72